H.kanter — ESUB — position and weather

sailwx.info

Track history (hours):
 
Tides and Currents Weather Stations Pressure Air Temp Water Temp Dewpoint Dewpoint Depression Visibility Wind Speed Wind Dir Waves Ship Positions

H.kanter

Last reported at 2016-Jun-14 12:19 UTC. Time now 2016-Jun-27 22:20 UTC.
Position N 59°32' E 024°56'.
Warning: this ship's position is 13 days out of date.

Length 33 m; draft 4.8 m.

Type: Tug. MMSI: 276504000.

Date/timePositionNaut miles runAvg speedWind from/ knotsBaromVisibWave heightAir tempDewpointWater temp
2016-Jun-14 12:19N 59°32' E 024°56'810.3
2016-Jun-14 11:33N 59°37' E 024°44'9 8.9
2016-Jun-14 10:32N 59°29' E 024°37'1 1.5
2016-Jun-14 09:33N 59°28' E 024°39'2 2.1
2016-Jun-14 08:33N 59°30' E 024°38'9 9.1
2016-Jun-14 07:33N 59°38' E 024°45'  
2016-Jun-05 11:32N 59°30' E 024°56'1 0.8
2016-Jun-05 10:33N 59°30' E 024°58'0 0.2
2016-Jun-05 09:32N 59°30' E 024°58'0 0.1
2016-Jun-05 08:33N 59°30' E 024°58'0 0.3
2016-Jun-05 07:34N 59°30' E 024°58'1 1.2
2016-Jun-05 06:33N 59°30' E 024°60'2 1.7
2016-Jun-05 05:32N 59°30' E 024°56'0 0.0
2016-Jun-05 04:32N 59°30' E 024°56'0 0.0
2016-Jun-05 03:33N 59°30' E 024°56'0 0.0
2016-Jun-05 02:31N 59°30' E 024°56'0 0.0
2016-Jun-05 01:32N 59°30' E 024°56'0 0.0
2016-Jun-05 00:32N 59°30' E 024°56'0 0.0
2016-Jun-04 23:33N 59°30' E 024°56'0 0.0
2016-Jun-04 22:34N 59°30' E 024°56'0 0.0
2016-Jun-04 21:31N 59°30' E 024°56'0 0.0
2016-Jun-04 20:32N 59°30' E 024°56'0 0.0
2016-Jun-04 19:33N 59°30' E 024°56'0 0.0
2016-Jun-04 18:33N 59°30' E 024°56'0 0.0
2016-Jun-04 17:31N 59°30' E 024°56'0 0.0
2016-Jun-04 16:32N 59°30' E 024°56'0 0.0
2016-Jun-04 15:32N 59°30' E 024°56'0 0.0
2016-Jun-04 14:33N 59°30' E 024°56'0 0.0
2016-Jun-04 13:34N 59°30' E 024°56'0 0.0
2016-Jun-04 12:31N 59°30' E 024°56'  
Track history (hours):
 
Tides and Currents Weather Stations Pressure Air Temp Water Temp Dewpoint Dewpoint Depression Visibility Wind Speed Wind Dir Waves Ship Positions

H.kanter

Last reported at 2016-Jun-14 12:19 UTC. Time now 2016-Jun-27 22:20 UTC.
Position N 59°32' E 024°56'.
Warning: this ship's position is 13 days out of date.

Length 33 m; draft 4.8 m.

Type: Tug. MMSI: 276504000.

Date/timePositionNaut miles runAvg speedWind from/ knotsBaromVisibWave heightAir tempDewpointWater temp
2016-Jun-14 12:19N 59°32' E 024°56'810.3
2016-Jun-14 11:33N 59°37' E 024°44'9 8.9
2016-Jun-14 10:32N 59°29' E 024°37'1 1.5
2016-Jun-14 09:33N 59°28' E 024°39'2 2.1
2016-Jun-14 08:33N 59°30' E 024°38'9 9.1
2016-Jun-14 07:33N 59°38' E 024°45'  
2016-Jun-05 11:32N 59°30' E 024°56'1 0.8
2016-Jun-05 10:33N 59°30' E 024°58'0 0.2
2016-Jun-05 09:32N 59°30' E 024°58'0 0.1
2016-Jun-05 08:33N 59°30' E 024°58'0 0.3
2016-Jun-05 07:34N 59°30' E 024°58'1 1.2
2016-Jun-05 06:33N 59°30' E 024°60'2 1.7
2016-Jun-05 05:32N 59°30' E 024°56'0 0.0
2016-Jun-05 04:32N 59°30' E 024°56'0 0.0
2016-Jun-05 03:33N 59°30' E 024°56'0 0.0
2016-Jun-05 02:31N 59°30' E 024°56'0 0.0
2016-Jun-05 01:32N 59°30' E 024°56'0 0.0
2016-Jun-05 00:32N 59°30' E 024°56'0 0.0
2016-Jun-04 23:33N 59°30' E 024°56'0 0.0
2016-Jun-04 22:34N 59°30' E 024°56'0 0.0
2016-Jun-04 21:31N 59°30' E 024°56'0 0.0
2016-Jun-04 20:32N 59°30' E 024°56'0 0.0
2016-Jun-04 19:33N 59°30' E 024°56'0 0.0
2016-Jun-04 18:33N 59°30' E 024°56'0 0.0
2016-Jun-04 17:31N 59°30' E 024°56'0 0.0
2016-Jun-04 16:32N 59°30' E 024°56'0 0.0
2016-Jun-04 15:32N 59°30' E 024°56'0 0.0
2016-Jun-04 14:33N 59°30' E 024°56'0 0.0
2016-Jun-04 13:34N 59°30' E 024°56'0 0.0
2016-Jun-04 12:31N 59°30' E 024°56'  

Dump ship's entire track history